sensor_id;sensor_type;location;lat;lon;timestamp;temperature;humidity
34766;DHT22;20984;43.508;1.504;2022-08-18T00:01:20;18.50;99.90
34766;DHT22;20984;43.508;1.504;2022-08-18T00:03:48;18.40;99.90
34766;DHT22;20984;43.508;1.504;2022-08-18T00:06:15;18.40;99.90
34766;DHT22;20984;43.508;1.504;2022-08-18T00:08:42;18.40;99.90
34766;DHT22;20984;43.508;1.504;2022-08-18T00:11:08;18.40;99.90
34766;DHT22;20984;43.508;1.504;2022-08-18T00:13:34;18.40;99.90
34766;DHT22;20984;43.508;1.504;2022-08-18T00:16:00;18.40;99.90
34766;DHT22;20984;43.508;1.504;2022-08-18T00:18:26;18.40;99.90
34766;DHT22;20984;43.508;1.504;2022-08-18T00:20:52;18.30;99.90
34766;DHT22;20984;43.508;1.504;2022-08-18T00:23:18;18.30;99.90
34766;DHT22;20984;43.508;1.504;2022-08-18T00:25:44;18.30;99.90
34766;DHT22;20984;43.508;1.504;2022-08-18T00:28:10;18.30;99.90
34766;DHT22;20984;43.508;1.504;2022-08-18T00:30:38;18.30;99.90
34766;DHT22;20984;43.508;1.504;2022-08-18T00:33:04;18.30;99.90
34766;DHT22;20984;43.508;1.504;2022-08-18T00:35:35;18.30;99.90
34766;DHT22;20984;43.508;1.504;2022-08-18T00:38:05;18.30;99.90
34766;DHT22;20984;43.508;1.504;2022-08-18T00:40:36;18.30;99.90
34766;DHT22;20984;43.508;1.504;2022-08-18T00:43:04;18.30;99.90
34766;DHT22;20984;43.508;1.504;2022-08-18T00:45:35;18.30;99.90
34766;DHT22;20984;43.508;1.504;2022-08-18T00:48:03;18.30;99.90
34766;DHT22;20984;43.508;1.504;2022-08-18T00:50:51;18.20;99.90
34766;DHT22;20984;43.508;1.504;2022-08-18T00:53:41;18.20;99.90
34766;DHT22;20984;43.508;1.504;2022-08-18T00:56:12;18.20;99.90
34766;DHT22;20984;43.508;1.504;2022-08-18T00:58:46;18.20;99.90
34766;DHT22;20984;43.508;1.504;2022-08-18T01:01:15;18.10;99.90
34766;DHT22;20984;43.508;1.504;2022-08-18T01:03:42;18.10;99.90
34766;DHT22;20984;43.508;1.504;2022-08-18T01:06:22;18.10;99.90
34766;DHT22;20984;43.508;1.504;2022-08-18T01:08:51;18.10;99.90
34766;DHT22;20984;43.508;1.504;2022-08-18T01:11:17;18.00;99.90
34766;DHT22;20984;43.508;1.504;2022-08-18T01:13:43;18.00;99.90
34766;DHT22;20984;43.508;1.504;2022-08-18T01:16:10;18.00;99.90
34766;DHT22;20984;43.508;1.504;2022-08-18T01:18:54;18.00;99.90
34766;DHT22;20984;43.508;1.504;2022-08-18T01:21:46;18.00;99.90
34766;DHT22;20984;43.508;1.504;2022-08-18T01:24:29;17.90;99.90
34766;DHT22;20984;43.508;1.504;2022-08-18T01:27:17;17.90;99.90
34766;DHT22;20984;43.508;1.504;2022-08-18T01:29:48;17.90;99.90
34766;DHT22;20984;43.508;1.504;2022-08-18T01:32:20;17.90;99.90
34766;DHT22;20984;43.508;1.504;2022-08-18T01:34:49;17.90;99.90
34766;DHT22;20984;43.508;1.504;2022-08-18T01:37:17;17.90;99.90
34766;DHT22;20984;43.508;1.504;2022-08-18T01:39:44;17.90;99.90
34766;DHT22;20984;43.508;1.504;2022-08-18T01:42:13;17.90;99.90
34766;DHT22;20984;43.508;1.504;2022-08-18T01:44:42;17.90;99.90
34766;DHT22;20984;43.508;1.504;2022-08-18T01:47:10;17.90;99.90
34766;DHT22;20984;43.508;1.504;2022-08-18T01:49:38;17.90;99.90
34766;DHT22;20984;43.508;1.504;2022-08-18T01:52:06;17.90;99.90
34766;DHT22;20984;43.508;1.504;2022-08-18T01:54:32;17.80;99.90
34766;DHT22;20984;43.508;1.504;2022-08-18T01:56:58;17.80;99.90
34766;DHT22;20984;43.508;1.504;2022-08-18T01:59:24;17.80;99.90
34766;DHT22;20984;43.508;1.504;2022-08-18T02:01:50;17.80;99.90
34766;DHT22;20984;43.508;1.504;2022-08-18T02:04:26;17.80;99.90
34766;DHT22;20984;43.508;1.504;2022-08-18T02:06:53;17.80;99.90
34766;DHT22;20984;43.508;1.504;2022-08-18T02:09:20;17.70;99.90
34766;DHT22;20984;43.508;1.504;2022-08-18T02:11:46;17.70;99.90
34766;DHT22;20984;43.508;1.504;2022-08-18T02:14:12;17.70;99.90
34766;DHT22;20984;43.508;1.504;2022-08-18T02:16:38;17.60;99.90
34766;DHT22;20984;43.508;1.504;2022-08-18T02:19:04;17.60;99.90
34766;DHT22;20984;43.508;1.504;2022-08-18T02:21:30;17.60;99.90
34766;DHT22;20984;43.508;1.504;2022-08-18T02:23:56;17.60;99.90
34766;DHT22;20984;43.508;1.504;2022-08-18T02:26:22;17.60;99.90
34766;DHT22;20984;43.508;1.504;2022-08-18T02:28:48;17.60;99.90
34766;DHT22;20984;43.508;1.504;2022-08-18T02:31:20;17.60;99.90
34766;DHT22;20984;43.508;1.504;2022-08-18T02:33:46;17.60;99.90
34766;DHT22;20984;43.508;1.504;2022-08-18T02:36:13;17.60;99.90
34766;DHT22;20984;43.508;1.504;2022-08-18T02:38:40;17.50;99.90
34766;DHT22;20984;43.508;1.504;2022-08-18T02:41:10;17.50;99.90
34766;DHT22;20984;43.508;1.504;2022-08-18T02:43:39;17.50;99.90
34766;DHT22;20984;43.508;1.504;2022-08-18T02:46:06;17.50;99.90
34766;DHT22;20984;43.508;1.504;2022-08-18T02:48:32;17.50;99.90
34766;DHT22;20984;43.508;1.504;2022-08-18T02:51:11;17.50;99.90
34766;DHT22;20984;43.508;1.504;2022-08-18T02:53:39;17.50;99.90
34766;DHT22;20984;43.508;1.504;2022-08-18T02:56:16;17.50;99.90
34766;DHT22;20984;43.508;1.504;2022-08-18T02:58:57;17.60;99.90
34766;DHT22;20984;43.508;1.504;2022-08-18T03:01:28;17.60;99.90
34766;DHT22;20984;43.508;1.504;2022-08-18T03:03:56;17.60;99.90
34766;DHT22;20984;43.508;1.504;2022-08-18T03:06:23;17.60;99.90
34766;DHT22;20984;43.508;1.504;2022-08-18T03:08:50;17.70;99.90
34766;DHT22;20984;43.508;1.504;2022-08-18T03:11:22;17.70;99.90
34766;DHT22;20984;43.508;1.504;2022-08-18T03:13:49;17.80;99.90
34766;DHT22;20984;43.508;1.504;2022-08-18T03:16:16;17.70;99.90
34766;DHT22;20984;43.508;1.504;2022-08-18T03:18:43;17.70;99.90
34766;DHT22;20984;43.508;1.504;2022-08-18T03:21:15;17.70;99.90
34766;DHT22;20984;43.508;1.504;2022-08-18T03:23:41;17.70;99.90
34766;DHT22;20984;43.508;1.504;2022-08-18T03:26:10;17.70;99.90
34766;DHT22;20984;43.508;1.504;2022-08-18T03:28:37;17.60;99.90
34766;DHT22;20984;43.508;1.504;2022-08-18T03:31:04;17.60;99.90
34766;DHT22;20984;43.508;1.504;2022-08-18T03:33:30;17.60;99.90
34766;DHT22;20984;43.508;1.504;2022-08-18T03:35:56;17.60;99.90
34766;DHT22;20984;43.508;1.504;2022-08-18T03:38:27;17.60;99.90
34766;DHT22;20984;43.508;1.504;2022-08-18T03:40:53;17.60;99.90
34766;DHT22;20984;43.508;1.504;2022-08-18T03:43:19;17.60;99.90
34766;DHT22;20984;43.508;1.504;2022-08-18T03:45:45;17.70;99.90
34766;DHT22;20984;43.508;1.504;2022-08-18T03:48:11;17.60;99.90
34766;DHT22;20984;43.508;1.504;2022-08-18T03:50:37;17.60;99.90
34766;DHT22;20984;43.508;1.504;2022-08-18T03:53:03;17.60;99.90
34766;DHT22;20984;43.508;1.504;2022-08-18T03:55:30;17.60;99.90
34766;DHT22;20984;43.508;1.504;2022-08-18T03:58:00;17.50;99.90
34766;DHT22;20984;43.508;1.504;2022-08-18T04:00:29;17.60;99.90
34766;DHT22;20984;43.508;1.504;2022-08-18T04:02:56;17.50;99.90
34766;DHT22;20984;43.508;1.504;2022-08-18T04:05:24;17.50;99.90
34766;DHT22;20984;43.508;1.504;2022-08-18T04:07:51;17.50;99.90
34766;DHT22;20984;43.508;1.504;2022-08-18T04:10:16;17.50;99.90
34766;DHT22;20984;43.508;1.504;2022-08-18T04:12:42;17.50;99.90
34766;DHT22;20984;43.508;1.504;2022-08-18T04:15:08;17.50;99.90
34766;DHT22;20984;43.508;1.504;2022-08-18T04:17:34;17.50;99.90
34766;DHT22;20984;43.508;1.504;2022-08-18T04:20:01;17.50;99.90
34766;DHT22;20984;43.508;1.504;2022-08-18T04:22:27;17.50;99.90
34766;DHT22;20984;43.508;1.504;2022-08-18T04:24:53;17.50;99.90
34766;DHT22;20984;43.508;1.504;2022-08-18T04:27:21;17.60;99.90
34766;DHT22;20984;43.508;1.504;2022-08-18T04:29:47;17.50;99.90
34766;DHT22;20984;43.508;1.504;2022-08-18T04:32:13;17.50;99.90
34766;DHT22;20984;43.508;1.504;2022-08-18T04:34:39;17.50;99.90
34766;DHT22;20984;43.508;1.504;2022-08-18T04:37:07;17.50;99.90
34766;DHT22;20984;43.508;1.504;2022-08-18T04:39:33;17.50;99.90
34766;DHT22;20984;43.508;1.504;2022-08-18T04:41:59;17.50;99.90
34766;DHT22;20984;43.508;1.504;2022-08-18T04:44:28;17.40;99.90
34766;DHT22;20984;43.508;1.504;2022-08-18T04:46:53;17.30;99.90
34766;DHT22;20984;43.508;1.504;2022-08-18T04:49:24;17.20;99.90
34766;DHT22;20984;43.508;1.504;2022-08-18T04:51:51;17.10;99.90
34766;DHT22;20984;43.508;1.504;2022-08-18T04:54:38;17.00;99.90
34766;DHT22;20984;43.508;1.504;2022-08-18T04:57:10;17.00;99.90
34766;DHT22;20984;43.508;1.504;2022-08-18T04:59:37;17.00;99.90
34766;DHT22;20984;43.508;1.504;2022-08-18T05:02:05;16.90;99.90
34766;DHT22;20984;43.508;1.504;2022-08-18T05:04:37;16.90;99.90
34766;DHT22;20984;43.508;1.504;2022-08-18T05:07:04;17.00;99.90
34766;DHT22;20984;43.508;1.504;2022-08-18T05:09:30;16.90;99.90
34766;DHT22;20984;43.508;1.504;2022-08-18T05:11:56;16.90;99.90
34766;DHT22;20984;43.508;1.504;2022-08-18T05:14:22;17.00;99.90
34766;DHT22;20984;43.508;1.504;2022-08-18T05:16:49;17.00;99.90
34766;DHT22;20984;43.508;1.504;2022-08-18T05:19:19;17.00;99.90
34766;DHT22;20984;43.508;1.504;2022-08-18T05:21:48;17.00;99.90
34766;DHT22;20984;43.508;1.504;2022-08-18T05:24:14;17.00;99.90
34766;DHT22;20984;43.508;1.504;2022-08-18T05:26:40;17.10;99.90
34766;DHT22;20984;43.508;1.504;2022-08-18T05:29:06;17.10;99.90
34766;DHT22;20984;43.508;1.504;2022-08-18T05:31:32;17.20;99.90
34766;DHT22;20984;43.508;1.504;2022-08-18T05:33:59;17.20;99.90
34766;DHT22;20984;43.508;1.504;2022-08-18T05:42:04;17.30;99.90
34766;DHT22;20984;43.508;1.504;2022-08-18T05:44:34;17.30;99.90
34766;DHT22;20984;43.508;1.504;2022-08-18T05:47:26;17.30;99.90
34766;DHT22;20984;43.508;1.504;2022-08-18T05:49:52;17.30;99.90
34766;DHT22;20984;43.508;1.504;2022-08-18T05:52:26;17.30;99.90
34766;DHT22;20984;43.508;1.504;2022-08-18T05:55:02;17.30;99.90
34766;DHT22;20984;43.508;1.504;2022-08-18T05:57:57;17.40;99.90
34766;DHT22;20984;43.508;1.504;2022-08-18T06:00:26;17.40;99.90
34766;DHT22;20984;43.508;1.504;2022-08-18T06:03:14;17.40;99.90
34766;DHT22;20984;43.508;1.504;2022-08-18T06:05:56;17.40;99.90
34766;DHT22;20984;43.508;1.504;2022-08-18T06:08:37;17.40;99.90
34766;DHT22;20984;43.508;1.504;2022-08-18T06:11:05;17.40;99.90
34766;DHT22;20984;43.508;1.504;2022-08-18T06:13:37;17.50;99.90
34766;DHT22;20984;43.508;1.504;2022-08-18T06:27:35;17.80;99.90
34766;DHT22;20984;43.508;1.504;2022-08-18T06:38:26;17.90;99.90
34766;DHT22;20984;43.508;1.504;2022-08-18T06:41:20;17.90;99.90
34766;DHT22;20984;43.508;1.504;2022-08-18T06:44:09;18.10;99.90
34766;DHT22;20984;43.508;1.504;2022-08-18T06:51:53;18.20;99.90
34766;DHT22;20984;43.508;1.504;2022-08-18T06:56:50;18.40;99.90
34766;DHT22;20984;43.508;1.504;2022-08-18T06:59:26;18.50;99.90
34766;DHT22;20984;43.508;1.504;2022-08-18T07:01:58;18.60;99.90
34766;DHT22;20984;43.508;1.504;2022-08-18T07:07:38;18.60;99.90
34766;DHT22;20984;43.508;1.504;2022-08-18T07:12:39;18.40;99.90
34766;DHT22;20984;43.508;1.504;2022-08-18T07:15:05;18.40;99.90
34766;DHT22;20984;43.508;1.504;2022-08-18T07:17:36;18.30;99.90
34766;DHT22;20984;43.508;1.504;2022-08-18T07:20:20;18.40;99.90
34766;DHT22;20984;43.508;1.504;2022-08-18T07:22:58;18.30;99.90
34766;DHT22;20984;43.508;1.504;2022-08-18T07:25:36;18.20;99.90
34766;DHT22;20984;43.508;1.504;2022-08-18T07:28:03;18.20;99.90
34766;DHT22;20984;43.508;1.504;2022-08-18T07:30:35;18.20;99.90
34766;DHT22;20984;43.508;1.504;2022-08-18T07:33:18;18.20;99.90
34766;DHT22;20984;43.508;1.504;2022-08-18T07:35:50;18.20;99.90
34766;DHT22;20984;43.508;1.504;2022-08-18T07:38:30;18.20;99.90
34766;DHT22;20984;43.508;1.504;2022-08-18T07:41:20;18.20;99.90
34766;DHT22;20984;43.508;1.504;2022-08-18T07:46:56;18.20;99.90
34766;DHT22;20984;43.508;1.504;2022-08-18T07:49:27;18.30;99.90
34766;DHT22;20984;43.508;1.504;2022-08-18T07:57:46;17.90;99.90
34766;DHT22;20984;43.508;1.504;2022-08-18T08:00:39;17.70;99.90
34766;DHT22;20984;43.508;1.504;2022-08-18T08:06:06;17.60;99.90
34766;DHT22;20984;43.508;1.504;2022-08-18T08:08:43;17.70;99.90
34766;DHT22;20984;43.508;1.504;2022-08-18T08:11:27;17.60;99.90
34766;DHT22;20984;43.508;1.504;2022-08-18T08:14:12;17.70;99.90
34766;DHT22;20984;43.508;1.504;2022-08-18T08:16:45;17.70;99.90
34766;DHT22;20984;43.508;1.504;2022-08-18T08:19:31;17.80;99.90
34766;DHT22;20984;43.508;1.504;2022-08-18T08:22:11;17.90;99.90
34766;DHT22;20984;43.508;1.504;2022-08-18T08:30:16;18.60;99.90
34766;DHT22;20984;43.508;1.504;2022-08-18T08:35:52;19.00;99.90
34766;DHT22;20984;43.508;1.504;2022-08-18T08:38:26;19.00;99.90
34766;DHT22;20984;43.508;1.504;2022-08-18T08:41:02;18.90;99.90
34766;DHT22;20984;43.508;1.504;2022-08-18T08:43:33;19.00;99.90
34766;DHT22;20984;43.508;1.504;2022-08-18T08:46:18;19.20;99.90
34766;DHT22;20984;43.508;1.504;2022-08-18T08:49:07;19.40;99.90
34766;DHT22;20984;43.508;1.504;2022-08-18T08:51:44;19.70;99.90
34766;DHT22;20984;43.508;1.504;2022-08-18T08:54:18;19.80;99.90
34766;DHT22;20984;43.508;1.504;2022-08-18T08:56:50;20.10;99.90
34766;DHT22;20984;43.508;1.504;2022-08-18T08:59:18;20.20;99.90
34766;DHT22;20984;43.508;1.504;2022-08-18T09:04:51;20.10;99.90
34766;DHT22;20984;43.508;1.504;2022-08-18T09:18:47;18.50;99.90
34766;DHT22;20984;43.508;1.504;2022-08-18T09:23:47;18.70;99.90
34766;DHT22;20984;43.508;1.504;2022-08-18T09:29:25;18.70;99.90
34766;DHT22;20984;43.508;1.504;2022-08-18T09:37:53;18.10;99.90
34766;DHT22;20984;43.508;1.504;2022-08-18T09:41:08;17.80;99.90
34766;DHT22;20984;43.508;1.504;2022-08-18T09:43:58;17.60;99.90
34766;DHT22;20984;43.508;1.504;2022-08-18T09:54:50;17.40;99.90
34766;DHT22;20984;43.508;1.504;2022-08-18T09:57:27;17.60;99.90
34766;DHT22;20984;43.508;1.504;2022-08-18T10:00:15;17.70;99.90
34766;DHT22;20984;43.508;1.504;2022-08-18T10:16:19;18.20;99.90
34766;DHT22;20984;43.508;1.504;2022-08-18T10:21:26;18.20;99.90
34766;DHT22;20984;43.508;1.504;2022-08-18T10:31:25;18.20;99.90
34766;DHT22;20984;43.508;1.504;2022-08-18T10:39:15;18.60;99.90
34766;DHT22;20984;43.508;1.504;2022-08-18T10:41:55;18.80;99.90
34766;DHT22;20984;43.508;1.504;2022-08-18T10:44:22;19.10;99.90
34766;DHT22;20984;43.508;1.504;2022-08-18T10:46:51;19.30;99.90
34766;DHT22;20984;43.508;1.504;2022-08-18T10:49:24;19.60;99.90
34766;DHT22;20984;43.508;1.504;2022-08-18T11:00:20;20.30;99.90
34766;DHT22;20984;43.508;1.504;2022-08-18T11:05:33;20.70;99.90
34766;DHT22;20984;43.508;1.504;2022-08-18T11:08:06;20.80;99.90
34766;DHT22;20984;43.508;1.504;2022-08-18T11:10:48;20.70;99.90
34766;DHT22;20984;43.508;1.504;2022-08-18T11:13:42;20.90;99.90
34766;DHT22;20984;43.508;1.504;2022-08-18T11:19:11;21.00;99.90
34766;DHT22;20984;43.508;1.504;2022-08-18T11:21:42;21.00;99.90
34766;DHT22;20984;43.508;1.504;2022-08-18T11:24:21;21.20;99.90
34766;DHT22;20984;43.508;1.504;2022-08-18T11:26:55;21.30;99.90
34766;DHT22;20984;43.508;1.504;2022-08-18T11:29:37;21.30;99.90
34766;DHT22;20984;43.508;1.504;2022-08-18T11:32:08;21.40;99.90
34766;DHT22;20984;43.508;1.504;2022-08-18T11:39:50;21.90;99.90
34766;DHT22;20984;43.508;1.504;2022-08-18T11:42:19;21.90;99.90
34766;DHT22;20984;43.508;1.504;2022-08-18T11:45:14;22.00;99.90
34766;DHT22;20984;43.508;1.504;2022-08-18T11:50:46;22.10;99.90
34766;DHT22;20984;43.508;1.504;2022-08-18T11:53:35;22.30;99.90
34766;DHT22;20984;43.508;1.504;2022-08-18T11:58:40;22.50;99.90
34766;DHT22;20984;43.508;1.504;2022-08-18T12:01:08;22.70;99.90
34766;DHT22;20984;43.508;1.504;2022-08-18T12:03:45;22.80;99.90
34766;DHT22;20984;43.508;1.504;2022-08-18T12:06:28;22.90;99.90
34766;DHT22;20984;43.508;1.504;2022-08-18T12:09:20;22.90;99.90
34766;DHT22;20984;43.508;1.504;2022-08-18T12:12:02;22.90;99.90
34766;DHT22;20984;43.508;1.504;2022-08-18T12:14:54;22.90;99.90
34766;DHT22;20984;43.508;1.504;2022-08-18T12:17:20;23.10;99.90
34766;DHT22;20984;43.508;1.504;2022-08-18T12:19:46;23.20;99.90
34766;DHT22;20984;43.508;1.504;2022-08-18T12:22:19;23.30;99.90
34766;DHT22;20984;43.508;1.504;2022-08-18T12:24:45;23.50;99.90
34766;DHT22;20984;43.508;1.504;2022-08-18T12:27:13;23.80;99.90
34766;DHT22;20984;43.508;1.504;2022-08-18T12:29:40;24.00;99.90
34766;DHT22;20984;43.508;1.504;2022-08-18T12:32:07;23.90;99.90
34766;DHT22;20984;43.508;1.504;2022-08-18T12:34:33;23.70;99.90
34766;DHT22;20984;43.508;1.504;2022-08-18T12:36:59;23.80;99.90
34766;DHT22;20984;43.508;1.504;2022-08-18T12:39:26;23.70;99.90
34766;DHT22;20984;43.508;1.504;2022-08-18T12:41:53;23.60;99.90
34766;DHT22;20984;43.508;1.504;2022-08-18T12:44:19;23.60;99.90
34766;DHT22;20984;43.508;1.504;2022-08-18T12:46:45;23.60;99.90
34766;DHT22;20984;43.508;1.504;2022-08-18T12:49:17;23.80;99.90
34766;DHT22;20984;43.508;1.504;2022-08-18T12:51:44;24.00;99.90
34766;DHT22;20984;43.508;1.504;2022-08-18T12:54:10;24.10;99.90
34766;DHT22;20984;43.508;1.504;2022-08-18T12:56:36;24.40;99.90
34766;DHT22;20984;43.508;1.504;2022-08-18T12:59:05;24.60;99.90
34766;DHT22;20984;43.508;1.504;2022-08-18T13:01:31;24.60;99.90
34766;DHT22;20984;43.508;1.504;2022-08-18T13:03:57;24.50;99.90
34766;DHT22;20984;43.508;1.504;2022-08-18T13:06:26;24.40;99.90
34766;DHT22;20984;43.508;1.504;2022-08-18T13:08:52;24.30;99.90
34766;DHT22;20984;43.508;1.504;2022-08-18T13:11:20;24.40;99.90
34766;DHT22;20984;43.508;1.504;2022-08-18T13:13:48;24.40;99.90
34766;DHT22;20984;43.508;1.504;2022-08-18T13:16:15;24.40;99.90
34766;DHT22;20984;43.508;1.504;2022-08-18T13:18:41;24.70;99.90
34766;DHT22;20984;43.508;1.504;2022-08-18T13:21:15;25.00;99.90
34766;DHT22;20984;43.508;1.504;2022-08-18T13:23:42;24.60;99.90
34766;DHT22;20984;43.508;1.504;2022-08-18T13:26:20;24.60;99.90
34766;DHT22;20984;43.508;1.504;2022-08-18T13:28:49;24.70;99.90
34766;DHT22;20984;43.508;1.504;2022-08-18T13:31:14;24.90;99.90
34766;DHT22;20984;43.508;1.504;2022-08-18T13:33:41;24.80;99.90
34766;DHT22;20984;43.508;1.504;2022-08-18T13:36:07;24.70;99.90
34766;DHT22;20984;43.508;1.504;2022-08-18T13:38:33;24.50;99.90
34766;DHT22;20984;43.508;1.504;2022-08-18T13:41:01;24.20;99.90
34766;DHT22;20984;43.508;1.504;2022-08-18T13:43:37;23.90;99.90
34766;DHT22;20984;43.508;1.504;2022-08-18T13:46:05;24.20;99.90
34766;DHT22;20984;43.508;1.504;2022-08-18T13:48:31;24.30;99.90
34766;DHT22;20984;43.508;1.504;2022-08-18T13:50:58;24.60;99.90
34766;DHT22;20984;43.508;1.504;2022-08-18T13:53:25;24.40;99.90
34766;DHT22;20984;43.508;1.504;2022-08-18T13:55:52;24.30;99.90
34766;DHT22;20984;43.508;1.504;2022-08-18T13:58:18;24.20;99.90
34766;DHT22;20984;43.508;1.504;2022-08-18T14:00:44;24.00;99.90
34766;DHT22;20984;43.508;1.504;2022-08-18T14:03:11;23.90;99.90
34766;DHT22;20984;43.508;1.504;2022-08-18T14:05:36;23.90;99.90
34766;DHT22;20984;43.508;1.504;2022-08-18T14:08:03;24.00;99.90
34766;DHT22;20984;43.508;1.504;2022-08-18T14:10:30;24.40;99.90
34766;DHT22;20984;43.508;1.504;2022-08-18T14:12:59;24.50;99.90
34766;DHT22;20984;43.508;1.504;2022-08-18T14:15:26;24.70;99.90
34766;DHT22;20984;43.508;1.504;2022-08-18T14:17:52;24.90;99.90
34766;DHT22;20984;43.508;1.504;2022-08-18T14:20:18;25.10;99.90
34766;DHT22;20984;43.508;1.504;2022-08-18T14:23:04;25.20;99.90
34766;DHT22;20984;43.508;1.504;2022-08-18T14:25:48;25.50;99.90
34766;DHT22;20984;43.508;1.504;2022-08-18T14:28:33;25.80;99.90
34766;DHT22;20984;43.508;1.504;2022-08-18T14:31:01;25.90;99.90
34766;DHT22;20984;43.508;1.504;2022-08-18T14:33:29;25.60;99.90
34766;DHT22;20984;43.508;1.504;2022-08-18T14:35:55;25.50;99.90
34766;DHT22;20984;43.508;1.504;2022-08-18T14:38:21;25.30;99.90
34766;DHT22;20984;43.508;1.504;2022-08-18T14:40:47;25.20;99.90
34766;DHT22;20984;43.508;1.504;2022-08-18T14:43:16;25.10;99.90
34766;DHT22;20984;43.508;1.504;2022-08-18T14:45:43;25.40;99.90
34766;DHT22;20984;43.508;1.504;2022-08-18T14:48:14;25.80;99.90
34766;DHT22;20984;43.508;1.504;2022-08-18T14:50:41;26.30;99.90
34766;DHT22;20984;43.508;1.504;2022-08-18T14:53:08;26.50;99.90
34766;DHT22;20984;43.508;1.504;2022-08-18T14:55:35;26.60;99.90
34766;DHT22;20984;43.508;1.504;2022-08-18T14:58:02;26.60;99.90
34766;DHT22;20984;43.508;1.504;2022-08-18T15:00:29;26.00;99.90
34766;DHT22;20984;43.508;1.504;2022-08-18T15:02:55;25.40;99.90
34766;DHT22;20984;43.508;1.504;2022-08-18T15:05:22;24.90;99.90
34766;DHT22;20984;43.508;1.504;2022-08-18T15:07:48;24.60;99.90
34766;DHT22;20984;43.508;1.504;2022-08-18T15:10:15;24.40;99.90
34766;DHT22;20984;43.508;1.504;2022-08-18T15:12:42;24.10;99.90
34766;DHT22;20984;43.508;1.504;2022-08-18T15:15:10;23.90;99.90
34766;DHT22;20984;43.508;1.504;2022-08-18T15:17:39;23.90;99.90
34766;DHT22;20984;43.508;1.504;2022-08-18T15:20:07;23.90;99.90
34766;DHT22;20984;43.508;1.504;2022-08-18T15:22:41;23.90;99.90
34766;DHT22;20984;43.508;1.504;2022-08-18T15:25:26;23.90;99.90
34766;DHT22;20984;43.508;1.504;2022-08-18T15:28:15;23.90;99.90
34766;DHT22;20984;43.508;1.504;2022-08-18T15:30:48;24.20;99.90
34766;DHT22;20984;43.508;1.504;2022-08-18T15:33:15;25.10;99.90
34766;DHT22;20984;43.508;1.504;2022-08-18T15:35:42;26.20;99.90
34766;DHT22;20984;43.508;1.504;2022-08-18T15:38:09;26.70;99.90
34766;DHT22;20984;43.508;1.504;2022-08-18T15:40:44;26.80;99.90
34766;DHT22;20984;43.508;1.504;2022-08-18T15:43:12;27.70;98.30
34766;DHT22;20984;43.508;1.504;2022-08-18T15:45:40;27.50;97.80
34766;DHT22;20984;43.508;1.504;2022-08-18T15:48:08;27.20;98.10
34766;DHT22;20984;43.508;1.504;2022-08-18T15:50:34;27.50;97.90
34766;DHT22;20984;43.508;1.504;2022-08-18T15:53:03;27.70;97.80
34766;DHT22;20984;43.508;1.504;2022-08-18T15:55:33;27.50;97.00
34766;DHT22;20984;43.508;1.504;2022-08-18T15:58:00;26.90;97.90
34766;DHT22;20984;43.508;1.504;2022-08-18T16:00:28;26.90;98.60
34766;DHT22;20984;43.508;1.504;2022-08-18T16:02:57;27.80;97.40
34766;DHT22;20984;43.508;1.504;2022-08-18T16:05:28;28.90;96.40
34766;DHT22;20984;43.508;1.504;2022-08-18T16:07:55;28.30;95.70
34766;DHT22;20984;43.508;1.504;2022-08-18T16:10:22;27.30;96.30
34766;DHT22;20984;43.508;1.504;2022-08-18T16:12:49;26.40;98.20
34766;DHT22;20984;43.508;1.504;2022-08-18T16:15:24;26.00;99.60
34766;DHT22;20984;43.508;1.504;2022-08-18T16:17:52;25.60;99.90
34766;DHT22;20984;43.508;1.504;2022-08-18T16:20:19;25.40;99.90
34766;DHT22;20984;43.508;1.504;2022-08-18T16:22:48;25.50;99.90
34766;DHT22;20984;43.508;1.504;2022-08-18T16:25:14;25.60;99.90
34766;DHT22;20984;43.508;1.504;2022-08-18T16:27:41;25.40;99.90
34766;DHT22;20984;43.508;1.504;2022-08-18T16:30:10;25.10;99.90
34766;DHT22;20984;43.508;1.504;2022-08-18T16:32:36;24.80;99.90
34766;DHT22;20984;43.508;1.504;2022-08-18T16:35:03;24.50;99.90
34766;DHT22;20984;43.508;1.504;2022-08-18T16:37:29;24.10;99.90
34766;DHT22;20984;43.508;1.504;2022-08-18T16:39:55;23.80;99.90
34766;DHT22;20984;43.508;1.504;2022-08-18T16:42:21;23.60;99.90
34766;DHT22;20984;43.508;1.504;2022-08-18T16:44:47;23.40;99.90
34766;DHT22;20984;43.508;1.504;2022-08-18T16:47:14;23.20;99.90
34766;DHT22;20984;43.508;1.504;2022-08-18T16:49:43;23.10;99.90
34766;DHT22;20984;43.508;1.504;2022-08-18T16:52:10;22.90;99.90
34766;DHT22;20984;43.508;1.504;2022-08-18T16:54:37;22.80;99.90
34766;DHT22;20984;43.508;1.504;2022-08-18T16:57:03;22.70;99.90
34766;DHT22;20984;43.508;1.504;2022-08-18T16:59:29;22.60;99.90
34766;DHT22;20984;43.508;1.504;2022-08-18T17:02:30;22.50;99.90
34766;DHT22;20984;43.508;1.504;2022-08-18T17:05:14;22.50;99.90
34766;DHT22;20984;43.508;1.504;2022-08-18T17:07:40;22.40;99.90
34766;DHT22;20984;43.508;1.504;2022-08-18T17:10:06;22.40;99.90
34766;DHT22;20984;43.508;1.504;2022-08-18T17:12:32;22.40;99.90
34766;DHT22;20984;43.508;1.504;2022-08-18T17:14:58;22.40;99.90
34766;DHT22;20984;43.508;1.504;2022-08-18T17:17:24;22.40;99.90
34766;DHT22;20984;43.508;1.504;2022-08-18T17:19:50;22.40;99.90
34766;DHT22;20984;43.508;1.504;2022-08-18T17:22:17;22.40;99.90
34766;DHT22;20984;43.508;1.504;2022-08-18T17:24:44;22.40;99.90
34766;DHT22;20984;43.508;1.504;2022-08-18T17:27:19;22.40;99.90
34766;DHT22;20984;43.508;1.504;2022-08-18T17:30:04;22.50;99.90
34766;DHT22;20984;43.508;1.504;2022-08-18T17:35:17;22.50;99.90
34766;DHT22;20984;43.508;1.504;2022-08-18T17:37:55;22.60;99.90
34766;DHT22;20984;43.508;1.504;2022-08-18T17:40:30;22.60;99.90
34766;DHT22;20984;43.508;1.504;2022-08-18T17:42:59;22.60;99.90
34766;DHT22;20984;43.508;1.504;2022-08-18T17:45:29;22.60;99.90
34766;DHT22;20984;43.508;1.504;2022-08-18T17:48:12;22.50;99.90
34766;DHT22;20984;43.508;1.504;2022-08-18T17:50:43;22.40;99.90
34766;DHT22;20984;43.508;1.504;2022-08-18T17:53:31;22.30;99.90
34766;DHT22;20984;43.508;1.504;2022-08-18T17:58:36;22.20;99.90
34766;DHT22;20984;43.508;1.504;2022-08-18T18:01:06;22.10;99.90
34766;DHT22;20984;43.508;1.504;2022-08-18T18:03:32;22.00;99.90
34766;DHT22;20984;43.508;1.504;2022-08-18T18:06:08;21.90;99.90
34766;DHT22;20984;43.508;1.504;2022-08-18T18:09:05;21.90;99.90
34766;DHT22;20984;43.508;1.504;2022-08-18T18:11:38;21.80;99.90
34766;DHT22;20984;43.508;1.504;2022-08-18T18:14:37;21.70;99.90
34766;DHT22;20984;43.508;1.504;2022-08-18T18:19:35;21.70;99.90
34766;DHT22;20984;43.508;1.504;2022-08-18T18:22:09;21.70;99.90
34766;DHT22;20984;43.508;1.504;2022-08-18T18:27:42;21.70;99.90
34766;DHT22;20984;43.508;1.504;2022-08-18T18:35:20;21.70;99.90
34766;DHT22;20984;43.508;1.504;2022-08-18T18:40:39;21.60;99.90